Time,TemperatureF,DewpointF,PressureIn,WindDirection,WindDirectionDegrees,WindSpeedMPH,WindSpeedGustMPH,Humidity,HourlyPrecipIn,Conditions,Clouds,dailyrainin,SolarRadiationWatts/m^2,SoftwareType,DateUTC
2013-07-18 00:01:00,69.0,40.0,-100.00,NE,38,7.0,12.0,35,0.00,,,0.03,0.000000,,2013-07-18 07:01:00,
2013-07-18 04:32:00,57.0,36.0,-100.00,ESE,118,8.0,11.0,45,-99.99,,,0.00,0.000000,,2013-07-18 11:32:00,
2013-07-18 04:43:00,57.0,36.0,-100.00,ESE,118,8.0,11.0,45,-99.99,,,0.00,0.000000,,2013-07-18 11:43:00,
2013-07-18 04:52:00,57.0,36.0,-100.00,ESE,118,8.0,11.0,45,-99.99,,,0.00,0.000000,,2013-07-18 11:52:00,
2013-07-18 05:01:00,57.0,36.0,-100.00,ESE,118,8.0,11.0,45,-99.99,,,0.00,0.000000,,2013-07-18 12:01:00,
2013-07-18 05:33:00,54.0,36.0,-100.00,ESE,122,8.0,12.0,51,0.00,,,0.00,0.000000,,2013-07-18 12:33:00,
2013-07-18 05:42:00,54.0,36.0,-100.00,ESE,122,8.0,12.0,51,0.00,,,0.00,0.000000,,2013-07-18 12:42:00,
2013-07-18 05:52:00,54.0,36.0,-100.00,ESE,122,8.0,12.0,51,0.00,,,0.00,0.000000,,2013-07-18 12:52:00,
2013-07-18 06:01:00,54.0,36.0,-100.00,ESE,122,8.0,12.0,51,0.00,,,0.00,0.000000,,2013-07-18 13:01:00,
2013-07-18 06:33:00,55.0,37.0,-100.00,ESE,121,4.0,9.0,50,0.00,,,0.00,11.000000,,2013-07-18 13:33:00,
2013-07-18 06:43:00,55.0,37.0,-100.00,ESE,121,4.0,9.0,50,0.00,,,0.00,11.000000,,2013-07-18 13:43:00,
2013-07-18 06:53:00,55.0,37.0,-100.00,ESE,121,4.0,9.0,50,0.00,,,0.00,11.000000,,2013-07-18 13:53:00,
2013-07-18 07:02:00,55.0,37.0,-100.00,ESE,121,4.0,9.0,50,0.00,,,0.00,11.000000,,2013-07-18 14:02:00,
2013-07-18 07:33:00,66.0,42.0,-100.00,NE,44,1.0,4.0,42,0.00,,,0.00,120.000000,,2013-07-18 14:33:00,
2013-07-18 07:43:00,66.0,42.0,-100.00,NE,44,1.0,4.0,42,0.00,,,0.00,120.000000,,2013-07-18 14:43:00,
2013-07-18 07:53:00,66.0,42.0,-100.00,NE,44,1.0,4.0,42,0.00,,,0.00,120.000000,,2013-07-18 14:53:00,
2013-07-18 08:01:00,66.0,42.0,-100.00,NE,44,1.0,4.0,42,0.00,,,0.00,120.000000,,2013-07-18 15:01:00,
2013-07-18 08:43:00,71.0,43.0,-100.00,ESE,110,3.0,6.0,37,0.00,,,0.00,283.000000,,2013-07-18 15:43:00,
2013-07-18 08:53:00,71.0,43.0,-100.00,ESE,110,3.0,6.0,37,0.00,,,0.00,283.000000,,2013-07-18 15:53:00,
2013-07-18 09:01:00,71.0,43.0,-100.00,ESE,110,3.0,6.0,37,0.00,,,0.00,283.000000,,2013-07-18 16:01:00,
2013-07-18 09:32:00,75.0,45.0,-100.00,ENE,64,3.0,8.0,34,0.00,,,0.00,454.000000,,2013-07-18 16:32:00,
2013-07-18 09:42:00,75.0,45.0,-100.00,ENE,64,3.0,8.0,34,0.00,,,0.00,454.000000,,2013-07-18 16:42:00,
2013-07-18 09:52:00,75.0,45.0,-100.00,ENE,64,3.0,8.0,34,0.00,,,0.00,454.000000,,2013-07-18 16:52:00,
2013-07-18 10:01:00,75.0,45.0,-100.00,ENE,64,3.0,8.0,34,0.00,,,0.00,454.000000,,2013-07-18 17:01:00,
2013-07-18 10:43:00,80.0,47.0,-100.00,NE,41,3.0,8.0,32,0.00,,,0.00,616.000000,,2013-07-18 17:43:00,
2013-07-18 10:52:00,80.0,47.0,-100.00,NE,41,3.0,8.0,32,0.00,,,0.00,616.000000,,2013-07-18 17:52:00,
2013-07-18 11:01:00,80.0,47.0,-100.00,NE,41,3.0,8.0,32,0.00,,,0.00,616.000000,,2013-07-18 18:01:00,
2013-07-18 11:32:00,83.0,46.0,-100.00,East,80,3.0,11.0,27,0.00,,,0.00,755.000000,,2013-07-18 18:32:00,
2013-07-18 11:43:00,83.0,46.0,-100.00,East,80,3.0,11.0,27,0.00,,,0.00,755.000000,,2013-07-18 18:43:00,
2013-07-18 11:52:00,83.0,46.0,-100.00,East,80,3.0,11.0,27,0.00,,,0.00,755.000000,,2013-07-18 18:52:00,
2013-07-18 12:01:00,83.0,46.0,-100.00,East,80,3.0,11.0,27,0.00,,,0.00,755.000000,,2013-07-18 19:01:00,
2013-07-18 12:43:00,87.0,42.0,-100.00,East,101,4.0,10.0,21,0.00,,,0.00,858.000000,,2013-07-18 19:43:00,
2013-07-18 12:53:00,87.0,42.0,-100.00,East,101,4.0,10.0,21,0.00,,,0.00,858.000000,,2013-07-18 19:53:00,
2013-07-18 13:01:00,87.0,42.0,-100.00,East,101,4.0,10.0,21,0.00,,,0.00,858.000000,,2013-07-18 20:01:00,
2013-07-18 13:43:00,88.0,44.0,-100.00,WSW,246,6.0,11.0,22,0.00,,,0.00,912.000000,,2013-07-18 20:43:00,
2013-07-18 13:52:00,88.0,44.0,-100.00,WSW,246,6.0,11.0,22,0.00,,,0.00,912.000000,,2013-07-18 20:52:00,
2013-07-18 14:01:00,88.0,44.0,-100.00,WSW,246,6.0,11.0,22,0.00,,,0.00,912.000000,,2013-07-18 21:01:00,
2013-07-18 14:32:00,91.0,40.0,-100.00,South,179,5.0,16.0,17,0.00,,,0.00,924.000000,,2013-07-18 21:32:00,
2013-07-18 14:43:00,91.0,40.0,-100.00,South,179,5.0,16.0,17,0.00,,,0.00,924.000000,,2013-07-18 21:43:00,
2013-07-18 14:52:00,91.0,40.0,-100.00,South,179,5.0,16.0,17,0.00,,,0.00,924.000000,,2013-07-18 21:52:00,
2013-07-18 15:01:00,91.0,40.0,-100.00,South,179,5.0,16.0,17,0.00,,,0.00,924.000000,,2013-07-18 22:01:00,
2013-07-18 16:01:00,93.0,31.0,-100.00,SW,228,5.0,14.0,11,0.00,,,0.00,899.000000,,2013-07-18 23:01:00,
2013-07-18 16:42:00,93.0,28.0,-100.00,West,265,6.0,13.0,10,0.00,,,0.00,814.000000,,2013-07-18 23:42:00,
2013-07-18 18:42:00,93.0,28.0,-100.00,WSW,244,6.0,13.0,10,0.00,,,0.00,517.000000,,2013-07-19 01:42:00,
2013-07-18 18:52:00,93.0,28.0,-100.00,WSW,244,6.0,13.0,10,0.00,,,0.00,517.000000,,2013-07-19 01:52:00,
2013-07-18 20:52:00,89.0,34.0,-100.00,North,2,8.0,13.0,14,0.00,,,0.00,160.000000,,2013-07-19 03:52:00,
2013-07-18 21:02:00,89.0,34.0,-100.00,North,2,8.0,13.0,14,0.00,,,0.00,160.000000,,2013-07-19 04:02:00,
2013-07-18 21:44:00,78.0,39.0,-100.00,ENE,68,4.0,12.0,25,-99.99,,,0.00,27.000000,,2013-07-19 04:44:00,
2013-07-18 21:52:00,78.0,39.0,-100.00,ENE,68,4.0,12.0,25,-99.99,,,0.00,27.000000,,2013-07-19 04:52:00,
2013-07-18 22:02:00,78.0,39.0,-100.00,ENE,68,4.0,12.0,25,-99.99,,,0.00,27.000000,,2013-07-19 05:02:00,
2013-07-18 22:32:00,76.0,38.0,-100.00,East,89,2.0,12.0,25,0.00,,,0.00,0.000000,,2013-07-19 05:32:00,
2013-07-18 22:43:00,76.0,38.0,-100.00,East,89,2.0,12.0,25,0.00,,,0.00,0.000000,,2013-07-19 05:43:00,
2013-07-18 22:53:00,76.0,38.0,-100.00,East,89,2.0,12.0,25,0.00,,,0.00,0.000000,,2013-07-19 05:53:00,
2013-07-18 23:52:00,68.0,37.0,-100.00,ESE,117,4.0,8.0,32,0.00,,,0.00,0.000000,,2013-07-19 06:52:00,